createdAt,value
2023-01-09T00:00:01.688Z,10.65
2023-01-09T00:02:29.388Z,10.91
2023-01-09T00:04:57.152Z,10.94
2023-01-09T00:07:24.789Z,10.53
2023-01-09T00:09:52.444Z,10.96
2023-01-09T00:12:20.423Z,11.01
2023-01-09T00:14:47.914Z,10.48
2023-01-09T00:17:16.753Z,10.73
2023-01-09T00:19:44.304Z,10.46
2023-01-09T00:22:11.733Z,10.73
2023-01-09T00:24:39.297Z,9.82
2023-01-09T00:27:06.847Z,10.30
2023-01-09T00:29:34.356Z,10.54
2023-01-09T00:32:01.870Z,10.30
2023-01-09T00:34:30.685Z,9.95
2023-01-09T00:36:58.214Z,9.61
2023-01-09T00:39:25.750Z,10.09
2023-01-09T00:41:54.419Z,10.74
2023-01-09T00:44:23.238Z,10.50
2023-01-09T00:46:51.744Z,10.46
2023-01-09T00:49:19.309Z,10.28
2023-01-09T00:51:48.131Z,10.54
2023-01-09T00:54:16.337Z,10.39
2023-01-09T00:56:43.919Z,9.72
2023-01-09T00:59:11.426Z,10.03
2023-01-09T01:01:39.054Z,9.18
2023-01-09T01:04:20.605Z,9.42
2023-01-09T01:07:07.111Z,9.37
2023-01-09T01:09:34.601Z,9.15
2023-01-09T01:12:07.055Z,9.62
2023-01-09T01:14:34.725Z,9.57
2023-01-09T01:17:02.413Z,9.67
2023-01-09T01:19:30.082Z,9.63
2023-01-09T01:21:58.954Z,9.79
2023-01-09T01:24:26.524Z,9.82
2023-01-09T01:26:54.042Z,9.86
2023-01-09T01:29:21.532Z,9.89
2023-01-09T01:31:49.024Z,9.81
2023-01-09T01:34:16.464Z,9.47
2023-01-09T01:36:43.938Z,9.91
2023-01-09T01:39:12.790Z,9.80
2023-01-09T01:41:40.280Z,9.78
2023-01-09T01:44:08.294Z,9.74
2023-01-09T01:46:35.835Z,9.85
2023-01-09T01:49:05.145Z,9.93
2023-01-09T01:51:33.416Z,9.80
2023-01-09T01:54:01.576Z,9.85
2023-01-09T01:56:32.002Z,9.68
2023-01-09T01:59:03.807Z,9.63
2023-01-09T02:01:31.511Z,9.50
2023-01-09T02:03:59.082Z,9.82
2023-01-09T02:06:26.570Z,9.58
2023-01-09T02:08:54.058Z,9.36
2023-01-09T02:11:21.751Z,9.36
2023-01-09T02:13:50.611Z,9.28
2023-01-09T02:16:21.814Z,9.03
2023-01-09T02:18:52.075Z,9.22
2023-01-09T02:21:23.700Z,9.18
2023-01-09T02:24:18.443Z,9.06
2023-01-09T02:27:03.692Z,9.01
2023-01-09T02:29:49.951Z,8.60
2023-01-09T02:32:22.267Z,8.65
2023-01-09T02:34:52.384Z,8.89
2023-01-09T02:37:21.538Z,8.49
2023-01-09T02:39:51.327Z,8.80
2023-01-09T02:42:19.478Z,8.70
2023-01-09T02:44:47.019Z,8.93
2023-01-09T02:47:29.969Z,8.71
2023-01-09T02:49:59.125Z,8.88
2023-01-09T02:52:28.150Z,8.70
2023-01-09T02:54:56.357Z,8.50
2023-01-09T02:57:28.695Z,8.44
2023-01-09T03:00:05.013Z,8.51
2023-01-09T03:02:38.215Z,8.58
2023-01-09T03:05:08.587Z,8.35
2023-01-09T03:07:36.901Z,8.77
2023-01-09T03:10:05.783Z,8.44
2023-01-09T03:12:33.320Z,8.46
2023-01-09T03:15:01.464Z,8.75
2023-01-09T03:17:29.478Z,8.37
2023-01-09T03:19:57.057Z,8.39
2023-01-09T03:22:25.954Z,8.39
2023-01-09T03:24:53.500Z,7.85
2023-01-09T03:27:21.015Z,8.03
2023-01-09T03:29:48.527Z,8.31
2023-01-09T03:32:16.111Z,8.39
2023-01-09T03:34:43.630Z,8.38
2023-01-09T03:37:11.096Z,7.76
2023-01-09T03:39:40.373Z,7.73
2023-01-09T03:42:07.906Z,7.69
2023-01-09T03:44:35.450Z,7.84
2023-01-09T03:47:02.968Z,8.11
2023-01-09T03:49:30.525Z,8.03
2023-01-09T03:51:58.025Z,8.07
2023-01-09T03:54:25.562Z,8.27
2023-01-09T03:56:54.431Z,8.13
2023-01-09T03:59:21.976Z,8.21
2023-01-09T04:01:49.558Z,7.95
2023-01-09T04:04:17.182Z,7.87
2023-01-09T04:06:44.646Z,8.10
2023-01-09T04:09:12.101Z,8.04
2023-01-09T04:11:39.639Z,7.95
2023-01-09T04:14:08.469Z,8.10
2023-01-09T04:16:35.972Z,7.51
2023-01-09T04:19:03.623Z,8.49
2023-01-09T04:21:31.140Z,8.25
2023-01-09T04:23:58.680Z,8.36
2023-01-09T04:26:26.242Z,8.33
2023-01-09T04:28:53.730Z,7.95
2023-01-09T04:31:22.596Z,7.86
2023-01-09T04:33:50.121Z,8.18
2023-01-09T04:36:17.609Z,7.78
2023-01-09T04:38:45.133Z,7.87
2023-01-09T04:41:32.672Z,7.81
2023-01-09T04:44:00.188Z,7.45
2023-01-09T04:46:29.050Z,7.68
2023-01-09T04:48:56.504Z,7.89
2023-01-09T04:51:24.029Z,7.58
2023-01-09T04:53:51.503Z,7.83
2023-01-09T04:56:18.985Z,8.15
2023-01-09T04:58:46.477Z,7.96
2023-01-09T05:01:14.051Z,7.89
2023-01-09T05:03:42.891Z,8.16
2023-01-09T05:06:10.443Z,7.88
2023-01-09T05:08:37.914Z,7.92
2023-01-09T05:11:05.442Z,7.67
2023-01-09T05:13:32.942Z,7.69
2023-01-09T05:16:00.402Z,7.70
2023-01-09T05:18:27.912Z,7.31
2023-01-09T05:20:56.834Z,7.44
2023-01-09T05:23:24.306Z,7.42
2023-01-09T05:25:51.840Z,6.96
2023-01-09T05:28:19.322Z,7.33
2023-01-09T05:30:47.489Z,7.51
2023-01-09T05:33:15.024Z,7.51
2023-01-09T05:35:42.519Z,7.57
2023-01-09T05:38:11.647Z,7.51
2023-01-09T05:40:40.594Z,7.22
2023-01-09T05:43:08.297Z,7.47
2023-01-09T05:45:35.973Z,7.31
2023-01-09T05:48:03.488Z,7.04
2023-01-09T05:50:31.045Z,7.02
2023-01-09T05:52:58.517Z,7.17
2023-01-09T05:55:27.337Z,7.20
2023-01-09T05:57:54.811Z,6.78
2023-01-09T06:00:22.507Z,7.12
2023-01-09T06:02:50.020Z,7.27
2023-01-09T06:05:17.635Z,6.95
2023-01-09T06:07:45.480Z,7.27
2023-01-09T06:10:13.708Z,7.39
2023-01-09T06:12:44.611Z,7.25
2023-01-09T06:15:12.616Z,7.53
2023-01-09T06:17:40.078Z,7.62
2023-01-09T06:20:07.978Z,7.49
2023-01-09T06:22:35.452Z,7.11
2023-01-09T06:25:02.956Z,7.79
2023-01-09T06:27:30.501Z,7.42
2023-01-09T06:29:59.411Z,7.74
2023-01-09T06:32:26.926Z,7.89
2023-01-09T06:34:54.506Z,7.53
2023-01-09T06:37:22.007Z,7.92
2023-01-09T06:39:49.472Z,7.55
2023-01-09T06:42:16.954Z,7.82
2023-01-09T06:44:44.442Z,7.72
2023-01-09T06:47:13.320Z,7.84
2023-01-09T06:49:40.786Z,8.00
2023-01-09T06:52:08.243Z,8.00
2023-01-09T06:54:35.698Z,7.80
2023-01-09T06:57:03.235Z,7.50
2023-01-09T06:59:30.697Z,7.57
2023-01-09T07:01:58.322Z,7.67
2023-01-09T07:04:27.235Z,7.88
2023-01-09T07:06:54.703Z,7.79
2023-01-09T07:09:22.248Z,7.99
2023-01-09T07:11:49.762Z,7.92
2023-01-09T07:14:17.295Z,8.44
2023-01-09T07:16:44.750Z,8.05
2023-01-09T07:19:12.214Z,8.77
2023-01-09T07:21:41.037Z,8.60
2023-01-09T07:24:08.501Z,8.24
2023-01-09T07:26:35.994Z,8.00
2023-01-09T07:29:03.612Z,8.82
2023-01-09T07:31:31.191Z,8.80
2023-01-09T07:33:58.800Z,8.54
2023-01-09T07:36:26.322Z,8.79
2023-01-09T07:38:55.146Z,8.78
2023-01-09T07:41:22.636Z,9.01
2023-01-09T07:43:50.153Z,8.64
2023-01-09T07:46:17.652Z,8.87
2023-01-09T07:48:45.125Z,9.19
2023-01-09T07:51:12.714Z,9.06
2023-01-09T07:53:40.163Z,8.89
2023-01-09T07:56:09.206Z,8.88
2023-01-09T07:58:36.894Z,8.70
2023-01-09T08:01:04.467Z,9.02
2023-01-09T08:03:33.588Z,9.26
2023-01-09T08:06:01.161Z,9.26
2023-01-09T08:08:28.868Z,8.96
2023-01-09T08:10:56.380Z,9.04
2023-01-09T08:13:25.228Z,9.19
2023-01-09T08:15:52.768Z,8.83
2023-01-09T08:18:20.286Z,9.32
2023-01-09T08:20:48.931Z,9.18
2023-01-09T08:23:16.394Z,8.80
2023-01-09T08:25:43.889Z,8.99
2023-01-09T08:28:11.420Z,9.09
2023-01-09T08:30:40.336Z,9.05
2023-01-09T08:33:07.858Z,9.25
2023-01-09T08:35:35.407Z,9.43
2023-01-09T08:38:03.047Z,9.18
2023-01-09T08:40:30.847Z,9.37
2023-01-09T08:43:15.967Z,8.81
2023-01-09T08:46:16.625Z,9.13
2023-01-09T08:48:44.268Z,9.40
2023-01-09T08:51:11.892Z,8.76
2023-01-09T08:53:39.378Z,8.93
2023-01-09T08:56:06.990Z,9.13
2023-01-09T08:58:34.917Z,8.95
2023-01-09T09:01:05.522Z,8.69
2023-01-09T09:03:33.101Z,8.79
2023-01-09T09:06:00.635Z,9.00
2023-01-09T09:08:28.124Z,9.23
2023-01-09T09:10:57.263Z,8.77
2023-01-09T09:13:24.823Z,9.14
2023-01-09T09:15:52.356Z,9.42
2023-01-09T09:18:21.271Z,9.41
2023-01-09T09:20:48.744Z,9.25
2023-01-09T09:23:16.266Z,9.42
2023-01-09T09:25:43.947Z,9.13
2023-01-09T09:28:11.519Z,9.56
2023-01-09T09:30:39.083Z,9.61
2023-01-09T09:33:06.619Z,9.45
2023-01-09T09:35:35.525Z,9.43
2023-01-09T09:38:05.589Z,9.27
2023-01-09T09:40:40.307Z,9.46
2023-01-09T09:43:44.857Z,9.47
2023-01-09T09:46:13.800Z,9.59
2023-01-09T09:48:43.213Z,9.79
2023-01-09T09:51:19.246Z,9.61
2023-01-09T09:53:48.839Z,9.50
2023-01-09T09:56:17.214Z,9.38
2023-01-09T09:58:45.553Z,9.81
2023-01-09T10:01:14.151Z,9.54
2023-01-09T10:03:42.843Z,9.14
2023-01-09T10:06:11.222Z,9.03
2023-01-09T10:08:44.219Z,9.39
2023-01-09T10:11:12.639Z,9.52
2023-01-09T10:13:57.726Z,9.46
2023-01-09T10:16:28.764Z,9.99
2023-01-09T10:18:59.713Z,9.35
2023-01-09T10:21:27.925Z,9.66
2023-01-09T10:24:02.814Z,9.76
2023-01-09T10:26:30.684Z,8.95
2023-01-09T10:29:05.301Z,9.63
2023-01-09T10:31:33.559Z,9.53
2023-01-09T10:34:03.980Z,9.16
2023-01-09T10:36:35.170Z,9.07
2023-01-09T10:39:04.915Z,9.28
2023-01-09T10:41:32.934Z,8.87
2023-01-09T10:44:01.122Z,9.19
2023-01-09T10:46:30.083Z,9.40
2023-01-09T10:49:00.103Z,9.02
2023-01-09T10:51:29.084Z,9.39
2023-01-09T10:53:56.946Z,9.28
2023-01-09T10:56:27.091Z,9.44
2023-01-09T10:58:55.184Z,9.02
2023-01-09T11:01:25.099Z,9.13
2023-01-09T11:03:52.644Z,9.60
2023-01-09T11:06:21.693Z,9.21
2023-01-09T11:08:50.367Z,8.71
2023-01-09T11:11:31.578Z,9.38
2023-01-09T11:14:06.377Z,9.39
2023-01-09T11:16:33.908Z,9.27
2023-01-09T11:19:01.771Z,8.97
2023-01-09T11:21:32.486Z,8.90
2023-01-09T11:24:17.487Z,8.35
2023-01-09T11:26:45.006Z,8.91
2023-01-09T11:29:14.334Z,9.00
2023-01-09T11:31:41.975Z,8.26
2023-01-09T11:34:14.667Z,9.00
2023-01-09T11:36:42.212Z,8.58
2023-01-09T11:39:16.327Z,9.20
2023-01-09T11:41:43.805Z,8.14
2023-01-09T11:44:11.888Z,9.13
2023-01-09T11:46:42.531Z,8.77
2023-01-09T11:49:20.931Z,9.03
2023-01-09T11:51:48.582Z,9.29
2023-01-09T11:54:20.009Z,8.95
2023-01-09T11:56:47.619Z,8.76
2023-01-09T11:59:15.791Z,8.93
2023-01-09T12:02:01.075Z,8.77
2023-01-09T12:04:30.001Z,8.61
2023-01-09T12:07:08.260Z,8.94
2023-01-09T12:09:37.523Z,8.79
2023-01-09T12:12:06.090Z,8.77
2023-01-09T12:14:36.527Z,9.05
2023-01-09T12:17:08.536Z,9.22
2023-01-09T12:19:45.153Z,9.10
2023-01-09T12:22:14.658Z,9.32
2023-01-09T12:24:54.819Z,8.99
2023-01-09T12:27:26.352Z,9.30
2023-01-09T12:29:56.991Z,8.54
2023-01-09T12:32:28.249Z,9.16
2023-01-09T12:35:00.387Z,9.01
2023-01-09T12:37:33.409Z,8.55
2023-01-09T12:40:04.435Z,8.40
2023-01-09T12:42:44.054Z,9.11
2023-01-09T12:45:17.449Z,9.00
2023-01-09T12:47:46.360Z,8.56
2023-01-09T12:50:28.785Z,9.09
2023-01-09T12:53:01.395Z,8.41
2023-01-09T12:55:28.946Z,8.75
2023-01-09T12:57:57.041Z,8.71
2023-01-09T13:00:24.879Z,8.69
2023-01-09T13:03:03.691Z,9.08
2023-01-09T13:05:39.018Z,8.76
2023-01-09T13:08:09.158Z,8.95
2023-01-09T13:10:39.324Z,8.59
2023-01-09T13:13:10.708Z,8.97
2023-01-09T13:15:39.219Z,8.76
2023-01-09T13:18:07.292Z,8.54
2023-01-09T13:20:35.214Z,8.67
2023-01-09T13:23:02.879Z,8.40
2023-01-09T13:25:38.884Z,8.41
2023-01-09T13:28:07.400Z,8.38
2023-01-09T13:30:38.504Z,9.00
2023-01-09T13:33:08.304Z,8.51
2023-01-09T13:35:35.769Z,9.43
2023-01-09T13:38:03.251Z,9.12
2023-01-09T13:40:32.941Z,9.22
2023-01-09T13:43:03.711Z,9.89
2023-01-09T13:45:31.802Z,9.47
2023-01-09T13:48:19.170Z,9.16
2023-01-09T13:50:47.044Z,9.21
2023-01-09T13:53:32.561Z,9.46
2023-01-09T13:56:05.563Z,9.35
2023-01-09T13:58:34.965Z,9.49
2023-01-09T14:01:03.763Z,9.21
2023-01-09T14:03:33.104Z,9.61
2023-01-09T14:06:14.239Z,9.74
2023-01-09T14:08:42.759Z,9.64
2023-01-09T14:11:10.322Z,8.98
2023-01-09T14:13:41.567Z,9.26
2023-01-09T14:16:10.530Z,9.55
2023-01-09T14:18:38.328Z,9.01
2023-01-09T14:23:51.460Z,9.13
2023-01-09T14:26:21.331Z,9.61
2023-01-09T14:28:50.294Z,9.07
2023-01-09T14:31:28.427Z,9.05
2023-01-09T14:34:23.388Z,9.44
2023-01-09T14:36:58.533Z,9.34
2023-01-09T14:39:26.007Z,9.84
2023-01-09T14:42:06.156Z,9.44
2023-01-09T14:44:36.791Z,9.64
2023-01-09T14:47:07.768Z,9.31
2023-01-09T14:49:36.084Z,9.72
2023-01-09T14:52:04.514Z,9.09
2023-01-09T14:54:33.023Z,9.53
2023-01-09T14:57:01.166Z,9.19
2023-01-09T14:59:28.659Z,9.13
2023-01-09T15:01:57.862Z,9.16
2023-01-09T15:04:27.186Z,9.04
2023-01-09T15:06:54.742Z,8.69
2023-01-09T15:09:24.491Z,9.31
2023-01-09T15:11:52.327Z,9.07
2023-01-09T15:14:27.179Z,9.37
2023-01-09T15:16:54.639Z,9.14
2023-01-09T15:19:23.576Z,9.27
2023-01-09T15:21:57.519Z,9.46
2023-01-09T15:24:27.101Z,9.15
2023-01-09T15:26:55.055Z,9.58
2023-01-09T15:29:22.895Z,9.89
2023-01-09T15:31:50.867Z,8.79
2023-01-09T15:34:19.479Z,8.54
2023-01-09T15:36:49.418Z,9.43
2023-01-09T15:39:17.691Z,8.44
2023-01-09T15:42:03.198Z,8.76
2023-01-09T15:44:36.098Z,8.57
2023-01-09T15:47:04.250Z,8.48
2023-01-09T15:49:31.791Z,8.50
2023-01-09T15:52:00.668Z,8.35
2023-01-09T15:54:29.597Z,8.71
2023-01-09T15:57:11.020Z,8.72
2023-01-09T15:59:38.580Z,8.89
2023-01-09T16:02:25.849Z,9.18
2023-01-09T16:04:53.655Z,8.95
2023-01-09T16:07:22.529Z,8.64
2023-01-09T16:09:52.576Z,9.03
2023-01-09T16:12:20.629Z,8.78
2023-01-09T16:14:50.608Z,8.77
2023-01-09T16:17:18.734Z,8.77
2023-01-09T16:19:48.048Z,8.54
2023-01-09T16:22:20.984Z,8.59
2023-01-09T16:24:53.385Z,8.53
2023-01-09T16:27:22.538Z,9.01
2023-01-09T16:29:50.521Z,8.75
2023-01-09T16:32:19.063Z,9.32
2023-01-09T16:34:48.381Z,9.45
2023-01-09T16:37:15.975Z,9.68
2023-01-09T16:39:43.570Z,9.79
2023-01-09T16:42:29.934Z,9.74
2023-01-09T16:44:57.426Z,9.17
2023-01-09T16:47:24.913Z,9.59
2023-01-09T16:49:52.374Z,9.56
2023-01-09T16:52:19.869Z,9.00
2023-01-09T16:54:47.788Z,9.29
2023-01-09T16:57:17.846Z,9.28
2023-01-09T16:59:45.396Z,9.48
2023-01-09T17:02:17.741Z,9.03
2023-01-09T17:04:45.300Z,9.27
2023-01-09T17:07:13.257Z,9.24
2023-01-09T17:09:40.749Z,8.64
2023-01-09T17:12:10.146Z,9.13
2023-01-09T17:14:38.937Z,9.17
2023-01-09T17:17:06.525Z,8.96
2023-01-09T17:19:34.041Z,8.75
2023-01-09T17:22:01.575Z,8.67
2023-01-09T17:24:46.454Z,8.96
2023-01-09T17:27:31.329Z,8.65
2023-01-09T17:30:00.833Z,8.82
2023-01-09T17:32:30.562Z,8.78
2023-01-09T17:34:58.114Z,8.52
2023-01-09T17:37:25.663Z,8.40
2023-01-09T17:39:53.171Z,8.32
2023-01-09T17:42:20.711Z,8.82
2023-01-09T17:44:48.169Z,8.73
2023-01-09T17:47:17.108Z,8.88
2023-01-09T17:49:44.683Z,8.37
2023-01-09T17:52:12.214Z,8.63
2023-01-09T17:54:39.790Z,9.08
2023-01-09T17:57:07.526Z,8.44
2023-01-09T17:59:35.262Z,8.39
2023-01-09T18:02:02.904Z,8.12
2023-01-09T18:04:31.832Z,8.04
2023-01-09T18:06:59.346Z,8.11
2023-01-09T18:09:26.888Z,8.57
2023-01-09T18:11:54.426Z,8.25
2023-01-09T18:14:21.883Z,8.08
2023-01-09T18:16:49.471Z,7.96
2023-01-09T18:19:17.036Z,7.72
2023-01-09T18:21:46.773Z,7.83
2023-01-09T18:24:14.285Z,8.00
2023-01-09T18:26:41.805Z,8.18
2023-01-09T18:29:11.335Z,8.02
2023-01-09T18:31:39.276Z,7.86
2023-01-09T18:34:07.588Z,8.06
2023-01-09T18:36:35.105Z,8.25
2023-01-09T18:39:04.744Z,8.22
2023-01-09T18:41:32.320Z,8.34
2023-01-09T18:44:00.553Z,8.49
2023-01-09T18:46:31.837Z,8.26
2023-01-09T18:49:00.203Z,8.43
2023-01-09T18:51:28.096Z,8.48
2023-01-09T18:53:55.880Z,8.00
2023-01-09T18:56:24.829Z,8.30
2023-01-09T18:58:55.185Z,8.27
2023-01-09T19:01:22.704Z,8.31
2023-01-09T19:03:50.317Z,8.73
2023-01-09T19:06:17.859Z,8.52
2023-01-09T19:08:45.326Z,8.38
2023-01-09T19:11:12.796Z,8.87
2023-01-09T19:13:41.640Z,8.71
2023-01-09T19:16:09.481Z,8.70
2023-01-09T19:18:37.760Z,8.24
2023-01-09T19:21:09.923Z,8.12
2023-01-09T19:23:37.477Z,8.33
2023-01-09T19:26:05.985Z,8.12
2023-01-09T19:28:33.612Z,7.92
2023-01-09T19:31:02.442Z,8.17
2023-01-09T19:33:29.931Z,8.15
2023-01-09T19:35:57.454Z,8.47
2023-01-09T19:38:24.935Z,7.83
2023-01-09T19:40:52.431Z,8.13
2023-01-09T19:43:26.601Z,8.09
2023-01-09T19:45:54.262Z,8.49
2023-01-09T19:48:23.472Z,8.51
2023-01-09T19:50:51.111Z,8.33
2023-01-09T19:53:18.715Z,8.57
2023-01-09T19:55:46.213Z,8.43
2023-01-09T19:58:13.759Z,8.24
2023-01-09T20:00:41.275Z,8.71
2023-01-09T20:03:08.770Z,8.81
2023-01-09T20:05:37.672Z,8.46
2023-01-09T20:08:06.293Z,8.41
2023-01-09T20:10:34.873Z,8.65
2023-01-09T20:13:02.491Z,8.83
2023-01-09T20:15:30.034Z,8.96
2023-01-09T20:17:57.726Z,8.50
2023-01-09T20:20:25.221Z,8.22
2023-01-09T20:22:54.007Z,8.27
2023-01-09T20:25:21.532Z,8.80
2023-01-09T20:27:48.984Z,8.61
2023-01-09T20:30:16.790Z,8.39
2023-01-09T20:32:47.377Z,8.41
2023-01-09T20:35:14.959Z,8.20
2023-01-09T20:37:42.434Z,7.87
2023-01-09T20:40:12.101Z,8.06
2023-01-09T20:42:39.584Z,7.86
2023-01-09T20:45:07.686Z,8.01
2023-01-09T20:47:35.152Z,8.01
2023-01-09T20:50:02.671Z,7.97
2023-01-09T20:52:30.142Z,7.86
2023-01-09T20:54:57.644Z,8.02
2023-01-09T20:57:26.496Z,7.96
2023-01-09T20:59:54.009Z,7.79
2023-01-09T21:02:22.353Z,7.68
2023-01-09T21:04:49.876Z,8.05
2023-01-09T21:07:17.396Z,7.35
2023-01-09T21:09:44.878Z,7.50
2023-01-09T21:12:27.614Z,7.31
2023-01-09T21:14:56.931Z,7.35
2023-01-09T21:17:24.552Z,7.28
2023-01-09T21:19:52.067Z,7.32
2023-01-09T21:22:19.554Z,7.44
2023-01-09T21:24:49.356Z,7.31
2023-01-09T21:27:16.843Z,7.27
2023-01-09T21:29:44.397Z,7.54
2023-01-09T21:32:13.238Z,7.47
2023-01-09T21:34:40.713Z,7.25
2023-01-09T21:37:09.047Z,7.34
2023-01-09T21:39:36.621Z,7.67
2023-01-09T21:42:21.721Z,7.37
2023-01-09T21:45:06.525Z,7.50
2023-01-09T21:47:35.357Z,7.77
2023-01-09T21:50:02.921Z,7.44
2023-01-09T21:52:30.382Z,7.91
2023-01-09T21:54:58.649Z,7.94
2023-01-09T21:57:26.153Z,7.44
2023-01-09T21:59:53.695Z,7.29
2023-01-09T22:02:21.178Z,7.33
2023-01-09T22:04:50.031Z,7.83
2023-01-09T22:07:17.537Z,7.36
2023-01-09T22:09:45.746Z,7.36
2023-01-09T22:12:13.364Z,7.30
2023-01-09T22:14:40.877Z,7.35
2023-01-09T22:17:08.399Z,7.73
2023-01-09T22:19:35.905Z,7.73
2023-01-09T22:22:07.215Z,7.00
2023-01-09T22:24:35.344Z,7.42
2023-01-09T22:27:02.828Z,7.46
2023-01-09T22:29:30.274Z,7.41
2023-01-09T22:31:57.891Z,7.54
2023-01-09T22:34:26.246Z,8.02
2023-01-09T22:36:53.838Z,7.94
2023-01-09T22:39:22.766Z,7.77
2023-01-09T22:41:51.146Z,8.08
2023-01-09T22:44:19.024Z,8.31
2023-01-09T22:46:46.575Z,8.12
2023-01-09T22:49:14.258Z,8.44
2023-01-09T22:51:41.791Z,8.43
2023-01-09T22:54:09.321Z,8.41
2023-01-09T22:56:38.175Z,8.30
2023-01-09T22:59:05.642Z,8.07
2023-01-09T23:01:33.139Z,8.22
2023-01-09T23:04:00.685Z,8.04
2023-01-09T23:06:28.232Z,8.32
2023-01-09T23:08:55.705Z,8.41
2023-01-09T23:11:38.391Z,8.66
2023-01-09T23:14:07.237Z,8.52
2023-01-09T23:16:34.827Z,8.66
2023-01-09T23:19:02.406Z,8.09
2023-01-09T23:21:29.931Z,7.54
2023-01-09T23:23:57.488Z,8.00
2023-01-09T23:26:24.998Z,8.11
2023-01-09T23:28:52.461Z,8.03
2023-01-09T23:31:21.344Z,8.04
2023-01-09T23:33:48.837Z,8.04
2023-01-09T23:36:16.306Z,7.97
2023-01-09T23:38:43.754Z,8.22
2023-01-09T23:41:11.242Z,8.38
2023-01-09T23:43:37.796Z,7.89
2023-01-09T23:46:05.471Z,7.54
2023-01-09T23:48:34.317Z,7.52
2023-01-09T23:51:01.864Z,7.76
2023-01-09T23:53:32.760Z,7.64
2023-01-09T23:56:01.209Z,7.77
2023-01-09T23:58:28.753Z,7.80
